Marco Polo — C6JZ7 — position and weather

sailwx.info

Track history (hours):
 
Tides and Currents Weather Stations Pressure Air Temp Water Temp Dewpoint Dewpoint Depression Visibility Wind Speed Wind Dir Waves Ship Positions

Marco Polo

Operator: Orient Lines

Last reported at 2019-Jul-13 19:56 UTC. Time now 2019-Jul-16 10:09 UTC.
Position N 63°16' W 051°45'.

Type: Ship. MMSI: 308691456.

Date/timePositionNaut miles runAvg speedWind from/ knotsBaromVisibWave heightAir tempDewpointWater temp
2019-Jul-13 19:56N 63°16' W 051°45'716.4
2019-Jul-13 19:30N 63°22' W 051°53'816.4
2019-Jul-13 19:00N 63°29' W 052°01'816.0
2019-Jul-13 18:30N 63°36' W 052°11'714.6
2019-Jul-13 18:00N 63°43' W 052°16'815.5
2019-Jul-13 17:30N 63°51' W 052°17'715.0
2019-Jul-13 17:00N 63°58' W 052°20'713.3
2019-Jul-13 16:30N 64°03' W 052°10'815.2
2019-Jul-13 16:00N 64°07' W 051°55'611.9
2019-Jul-13 15:29N 64°10' W 051°43'0 0.0
2019-Jul-13 14:56N 64°10' W 051°43'0 0.0
2019-Jul-13 14:29N 64°10' W 051°43'0 0.0
2019-Jul-13 13:59N 64°10' W 051°43'0 0.0
2019-Jul-13 13:29N 64°10' W 051°43'0 0.0
2019-Jul-13 12:59N 64°10' W 051°43'0 0.0
2019-Jul-13 12:30N 64°10' W 051°43'0 0.0
2019-Jul-13 12:00N 64°10' W 051°43'0 0.0
2019-Jul-13 11:29N 64°10' W 051°43'0 0.0
2019-Jul-13 11:00N 64°10' W 051°43'0 0.5
2019-Jul-13 10:30N 64°10' W 051°43'1 1.0
2019-Jul-13 10:00N 64°09' W 051°44'4 9.0
2019-Jul-13 09:30N 64°08' W 051°53'815.1
2019-Jul-13 09:00N 64°04' W 052°08'713.8
2019-Jul-13 08:30N 64°07' W 052°21'815.2
2019-Jul-13 08:00N 64°15' W 052°26'815.0
2019-Jul-13 07:30N 64°22' W 052°32'714.7
2019-Jul-13 07:01N 64°29' W 052°37'815.0
2019-Jul-13 06:30N 64°36' W 052°42'714.8
2019-Jul-13 06:00N 64°43' W 052°48'815.3
2019-Jul-13 05:30N 64°50' W 052°53'815.5
2019-Jul-13 05:00N 64°58' W 052°58'1115.6
2019-Jul-13 04:16N 65°09' W 053°07'5415.7
2019-Jul-13 00:50N 66°00' W 053°43'3 0.1
2019-Jul-12 00:51N 66°01' W 053°35'914.0
2019-Jul-12 00:14N 66°02' W 053°56'32 1.2
2019-Jul-10 20:56N 65°30' W 053°53'5 8.5
2019-Jul-10 20:20N 65°28' W 053°41'3 8.8
2019-Jul-10 20:00N 65°27' W 053°35'4 8.7
2019-Jul-10 19:30N 65°25' W 053°25'4 8.7
2019-Jul-10 19:00N 65°23' W 053°16'611.7
2019-Jul-10 18:30N 65°22' W 053°02'5 3.4
2019-Jul-10 16:59N 65°25' W 052°52'0 0.0
2019-Jul-10 11:07N 65°25' W 052°52'0 0.0
2019-Jul-10 10:55N 65°25' W 052°52'0 0.0
2019-Jul-10 10:28N 65°25' W 052°52'0 0.0
2019-Jul-10 09:38N 65°25' W 052°52'0 0.0
2019-Jul-10 09:23N 65°25' W 052°52'0 0.0
2019-Jul-10 09:00N 65°25' W 052°52'0 0.0
2019-Jul-10 08:15N 65°25' W 052°52'17 8.1
2019-Jul-10 06:11N 65°08' W 052°56'2 9.7
2019-Jul-10 06:00N 65°06' W 052°56'5 9.9
2019-Jul-10 05:30N 65°01' W 052°55'5 9.6
2019-Jul-10 05:00N 64°56' W 052°55'5 9.6
2019-Jul-10 04:30N 64°52' W 052°53'5 9.6
2019-Jul-10 04:00N 64°47' W 052°52'5 9.7
2019-Jul-10 03:30N 64°42' W 052°51'5 9.7
2019-Jul-10 03:00N 64°37' W 052°50'5 9.6
2019-Jul-10 02:30N 64°32' W 052°49'5 9.6
2019-Jul-10 02:00N 64°28' W 052°48'5 9.5
2019-Jul-10 01:30N 64°23' W 052°47'5 9.5
2019-Jul-10 01:00N 64°18' W 052°47'5 9.4
2019-Jul-10 00:30N 64°13' W 052°47'5 9.5
2019-Jul-10 00:00N 64°09' W 052°48'5 9.7
2019-Jul-09 23:30N 64°04' W 052°48'5 9.5
2019-Jul-09 23:00N 63°59' W 052°46'510.2
2019-Jul-09 22:30N 63°54' W 052°43'510.1
2019-Jul-09 22:00N 63°49' W 052°42'4 8.9
2019-Jul-09 21:31N 63°45' W 052°41'611.1
2019-Jul-09 21:00N 63°39' W 052°38'611.5
2019-Jul-09 20:30N 63°34' W 052°34'612.0
2019-Jul-09 20:00N 63°29' W 052°28'611.7
2019-Jul-09 19:30N 63°24' W 052°21'611.7
2019-Jul-09 19:00N 63°19' W 052°14'  
2019-Jul-04 17:50N 65°13' W 013°23'815.3
2019-Jul-04 17:19N 65°05' W 013°24'514.9
2019-Jul-04 17:00N 65°01' W 013°25'611.9
2019-Jul-04 16:30N 64°57' W 013°36'714.9
2019-Jul-04 16:00N 65°00' W 013°52'611.8
2019-Jul-04 15:30N 65°04' W 014°02'0 0.5
2019-Jul-04 14:58N 65°04' W 014°01'0 0.0
2019-Jul-04 14:28N 65°04' W 014°01'0 0.0
2019-Jul-04 13:58N 65°04' W 014°01'0 0.0
2019-Jul-04 13:28N 65°04' W 014°01'0 0.0
2019-Jul-04 12:58N 65°04' W 014°01'0 0.0
2019-Jul-04 12:28N 65°04' W 014°01'0 0.0
2019-Jul-04 11:58N 65°04' W 014°01'0 0.0
2019-Jul-04 11:28N 65°04' W 014°01'0 0.0
2019-Jul-04 10:58N 65°04' W 014°01'0 0.0
2019-Jul-04 10:28N 65°04' W 014°01'0 0.0
2019-Jul-04 09:58N 65°04' W 014°01'0 0.0
2019-Jul-04 09:28N 65°04' W 014°01'0 0.3
2019-Jul-04 09:01N 65°04' W 014°01'4 8.0
2019-Jul-04 08:31N 65°02' W 013°55'5 9.4
2019-Jul-04 08:01N 64°58' W 013°47'612.7
2019-Jul-04 07:31N 64°56' W 013°33'713.5
2019-Jul-04 06:59N 64°51' W 013°20'  
Track history (hours):
 
Tides and Currents Weather Stations Pressure Air Temp Water Temp Dewpoint Dewpoint Depression Visibility Wind Speed Wind Dir Waves Ship Positions

Marco Polo

Operator: Orient Lines

Last reported at 2019-Jul-13 19:56 UTC. Time now 2019-Jul-16 10:09 UTC.
Position N 63°16' W 051°45'.

Type: Ship. MMSI: 308691456.

Date/timePositionNaut miles runAvg speedWind from/ knotsBaromVisibWave heightAir tempDewpointWater temp
2019-Jul-13 19:56N 63°16' W 051°45'716.4
2019-Jul-13 19:30N 63°22' W 051°53'816.4
2019-Jul-13 19:00N 63°29' W 052°01'816.0
2019-Jul-13 18:30N 63°36' W 052°11'714.6
2019-Jul-13 18:00N 63°43' W 052°16'815.5
2019-Jul-13 17:30N 63°51' W 052°17'715.0
2019-Jul-13 17:00N 63°58' W 052°20'713.3
2019-Jul-13 16:30N 64°03' W 052°10'815.2
2019-Jul-13 16:00N 64°07' W 051°55'611.9
2019-Jul-13 15:29N 64°10' W 051°43'0 0.0
2019-Jul-13 14:56N 64°10' W 051°43'0 0.0
2019-Jul-13 14:29N 64°10' W 051°43'0 0.0
2019-Jul-13 13:59N 64°10' W 051°43'0 0.0
2019-Jul-13 13:29N 64°10' W 051°43'0 0.0
2019-Jul-13 12:59N 64°10' W 051°43'0 0.0
2019-Jul-13 12:30N 64°10' W 051°43'0 0.0
2019-Jul-13 12:00N 64°10' W 051°43'0 0.0
2019-Jul-13 11:29N 64°10' W 051°43'0 0.0
2019-Jul-13 11:00N 64°10' W 051°43'0 0.5
2019-Jul-13 10:30N 64°10' W 051°43'1 1.0
2019-Jul-13 10:00N 64°09' W 051°44'4 9.0
2019-Jul-13 09:30N 64°08' W 051°53'815.1
2019-Jul-13 09:00N 64°04' W 052°08'713.8
2019-Jul-13 08:30N 64°07' W 052°21'815.2
2019-Jul-13 08:00N 64°15' W 052°26'815.0
2019-Jul-13 07:30N 64°22' W 052°32'714.7
2019-Jul-13 07:01N 64°29' W 052°37'815.0
2019-Jul-13 06:30N 64°36' W 052°42'714.8
2019-Jul-13 06:00N 64°43' W 052°48'815.3
2019-Jul-13 05:30N 64°50' W 052°53'815.5
2019-Jul-13 05:00N 64°58' W 052°58'1115.6
2019-Jul-13 04:16N 65°09' W 053°07'5415.7
2019-Jul-13 00:50N 66°00' W 053°43'3 0.1
2019-Jul-12 00:51N 66°01' W 053°35'914.0
2019-Jul-12 00:14N 66°02' W 053°56'32 1.2
2019-Jul-10 20:56N 65°30' W 053°53'5 8.5
2019-Jul-10 20:20N 65°28' W 053°41'3 8.8
2019-Jul-10 20:00N 65°27' W 053°35'4 8.7
2019-Jul-10 19:30N 65°25' W 053°25'4 8.7
2019-Jul-10 19:00N 65°23' W 053°16'611.7
2019-Jul-10 18:30N 65°22' W 053°02'5 3.4
2019-Jul-10 16:59N 65°25' W 052°52'0 0.0
2019-Jul-10 11:07N 65°25' W 052°52'0 0.0
2019-Jul-10 10:55N 65°25' W 052°52'0 0.0
2019-Jul-10 10:28N 65°25' W 052°52'0 0.0
2019-Jul-10 09:38N 65°25' W 052°52'0 0.0
2019-Jul-10 09:23N 65°25' W 052°52'0 0.0
2019-Jul-10 09:00N 65°25' W 052°52'0 0.0
2019-Jul-10 08:15N 65°25' W 052°52'17 8.1
2019-Jul-10 06:11N 65°08' W 052°56'2 9.7
2019-Jul-10 06:00N 65°06' W 052°56'5 9.9
2019-Jul-10 05:30N 65°01' W 052°55'5 9.6
2019-Jul-10 05:00N 64°56' W 052°55'5 9.6
2019-Jul-10 04:30N 64°52' W 052°53'5 9.6
2019-Jul-10 04:00N 64°47' W 052°52'5 9.7
2019-Jul-10 03:30N 64°42' W 052°51'5 9.7
2019-Jul-10 03:00N 64°37' W 052°50'5 9.6
2019-Jul-10 02:30N 64°32' W 052°49'5 9.6
2019-Jul-10 02:00N 64°28' W 052°48'5 9.5
2019-Jul-10 01:30N 64°23' W 052°47'5 9.5
2019-Jul-10 01:00N 64°18' W 052°47'5 9.4
2019-Jul-10 00:30N 64°13' W 052°47'5 9.5
2019-Jul-10 00:00N 64°09' W 052°48'5 9.7
2019-Jul-09 23:30N 64°04' W 052°48'5 9.5
2019-Jul-09 23:00N 63°59' W 052°46'510.2
2019-Jul-09 22:30N 63°54' W 052°43'510.1
2019-Jul-09 22:00N 63°49' W 052°42'4 8.9
2019-Jul-09 21:31N 63°45' W 052°41'611.1
2019-Jul-09 21:00N 63°39' W 052°38'611.5
2019-Jul-09 20:30N 63°34' W 052°34'612.0
2019-Jul-09 20:00N 63°29' W 052°28'611.7
2019-Jul-09 19:30N 63°24' W 052°21'611.7
2019-Jul-09 19:00N 63°19' W 052°14'  
2019-Jul-04 17:50N 65°13' W 013°23'815.3
2019-Jul-04 17:19N 65°05' W 013°24'514.9
2019-Jul-04 17:00N 65°01' W 013°25'611.9
2019-Jul-04 16:30N 64°57' W 013°36'714.9
2019-Jul-04 16:00N 65°00' W 013°52'611.8
2019-Jul-04 15:30N 65°04' W 014°02'0 0.5
2019-Jul-04 14:58N 65°04' W 014°01'0 0.0
2019-Jul-04 14:28N 65°04' W 014°01'0 0.0
2019-Jul-04 13:58N 65°04' W 014°01'0 0.0
2019-Jul-04 13:28N 65°04' W 014°01'0 0.0
2019-Jul-04 12:58N 65°04' W 014°01'0 0.0
2019-Jul-04 12:28N 65°04' W 014°01'0 0.0
2019-Jul-04 11:58N 65°04' W 014°01'0 0.0
2019-Jul-04 11:28N 65°04' W 014°01'0 0.0
2019-Jul-04 10:58N 65°04' W 014°01'0 0.0
2019-Jul-04 10:28N 65°04' W 014°01'0 0.0
2019-Jul-04 09:58N 65°04' W 014°01'0 0.0
2019-Jul-04 09:28N 65°04' W 014°01'0 0.3
2019-Jul-04 09:01N 65°04' W 014°01'4 8.0
2019-Jul-04 08:31N 65°02' W 013°55'5 9.4
2019-Jul-04 08:01N 64°58' W 013°47'612.7
2019-Jul-04 07:31N 64°56' W 013°33'713.5
2019-Jul-04 06:59N 64°51' W 013°20'  

Dump ship's entire track history